Time;durP1;ratioP1;P1;durP2;ratioP2;P2;SDS_P1;SDS_P2;PMS_P1;PMS_P2;Temp;Humidity;BMP_temperature;BMP_pressure;BME280_temperature;BME280_humidity;BME280_pressure;Samples;Min_cycle;Max_cycle;Signal;HPM_P1;HPM_P2
2023/08/12 00:02:17;;;;;;;13.13;12.73;;;;;;;-141.02;100.00;40609.75;5135185;27;20196;-67
2023/08/12 00:04:46;;;;;;;13.40;13.00;;;;;;;-141.02;100.00;40481.22;5135058;27;20287;-67
2023/08/12 00:07:13;;;;;;;14.63;14.13;;;;;;;-141.02;100.00;40051.53;5135300;27;20633;-67
2023/08/12 00:09:40;;;;;;;15.60;15.00;;;;;;;-141.02;100.00;39869.31;5134918;27;20313;-68
2023/08/12 00:12:07;;;;;;;16.00;15.40;;;;;;;-141.02;100.00;39844.38;5135438;27;20229;-68
2023/08/12 00:14:34;;;;;;;16.00;15.40;;;;;;;-141.02;100.00;39930.69;5134850;27;20619;-68
2023/08/12 00:17:02;;;;;;;16.00;15.40;;;;;;;-141.02;100.00;39995.91;5135153;27;20222;-68
2023/08/12 00:19:29;;;;;;;15.02;14.52;;;;;;;-141.02;100.00;40064.97;5134821;27;20550;-69
2023/08/12 00:21:56;;;;;;;14.30;13.80;;;;;;;-141.02;100.00;40132.09;5135071;27;20275;-68
2023/08/12 00:24:23;;;;;;;14.18;13.68;;;;;;;-141.02;100.00;40206.91;5134621;27;20303;-66
2023/08/12 00:26:50;;;;;;;14.63;14.13;;;;;;;-141.02;100.00;40189.66;5134665;27;20193;-68
2023/08/12 00:29:17;;;;;;;14.63;14.13;;;;;;;-141.02;100.00;40199.22;5134803;27;20220;-68
2023/08/12 00:31:44;;;;;;;14.60;14.10;;;;;;;-141.02;100.00;40218.41;5134897;27;20203;-68
2023/08/12 00:34:12;;;;;;;13.77;13.38;;;;;;;-141.02;100.00;40341.19;5134508;27;20647;-68
2023/08/12 00:36:39;;;;;;;14.10;13.60;;;;;;;-141.02;100.00;40479.31;5134462;27;20239;-67
2023/08/12 00:39:06;;;;;;;13.13;12.73;;;;;;;-141.02;100.00;40678.84;5134396;27;20729;-67
2023/08/12 00:41:33;;;;;;;12.95;12.55;;;;;;;-141.02;100.00;40886.03;5134905;27;20188;-68
2023/08/12 00:44:00;;;;;;;12.10;11.70;;;;;;;-141.02;100.00;41014.59;5134607;27;20192;-68
2023/08/12 00:46:27;;;;;;;11.50;11.20;;;;;;;-141.02;100.00;41146.97;5134523;27;20275;-69
2023/08/12 00:48:54;;;;;;;12.30;11.90;;;;;;;-141.02;100.00;41304.31;5134168;27;20658;-67
2023/08/12 00:51:23;;;;;;;12.02;11.63;;;;;;;-141.02;100.00;41415.63;5134204;27;20239;-66
2023/08/12 00:53:52;;;;;;;12.02;11.63;;;;;;;-141.02;100.00;41459.75;5134079;27;20207;-69
2023/08/12 00:56:19;;;;;;;12.20;11.80;;;;;;;-141.02;100.00;41578.75;5134316;27;20307;-67
2023/08/12 00:58:47;;;;;;;11.65;11.35;;;;;;;-141.02;100.00;41642.06;5134244;27;20271;-67
2023/08/12 01:01:14;;;;;;;11.52;11.23;;;;;;;-141.02;100.00;41665.09;5133417;27;20200;-67
2023/08/12 01:03:42;;;;;;;11.80;11.50;;;;;;;-141.02;100.00;41728.44;5134188;27;20298;-65
2023/08/12 01:06:09;;;;;;;11.65;11.35;;;;;;;-141.02;100.00;41676.59;5133869;27;20228;-67
2023/08/12 01:08:37;;;;;;;11.80;11.50;;;;;;;-141.02;100.00;41665.09;5133854;27;20693;-68
2023/08/12 01:11:11;;;;;;;11.82;11.48;;;;;;;-141.02;100.00;41509.66;5133904;27;20263;-68
2023/08/12 01:13:59;;;;;;;12.18;11.77;;;;;;;-141.02;100.00;41377.25;5133979;27;20184;-68
2023/08/12 01:16:30;;;;;;;12.50;12.10;;;;;;;-141.02;100.00;41465.50;5134021;27;20185;-67
2023/08/12 01:18:57;;;;;;;12.50;12.10;;;;;;;-141.02;100.00;41411.78;5133641;27;20276;-67
2023/08/12 01:21:28;;;;;;;12.25;11.85;;;;;;;-141.02;100.00;41419.47;5133869;27;20188;-68
2023/08/12 01:23:57;;;;;;;12.25;11.85;;;;;;;-141.02;100.00;41473.19;5133351;27;20232;-67
2023/08/12 01:26:24;;;;;;;12.50;12.10;;;;;;;-141.02;100.00;41542.28;5133550;27;20192;-67
2023/08/12 01:28:51;;;;;;;12.20;11.80;;;;;;;-141.02;100.00;41636.31;5133497;27;20192;-69
2023/08/12 01:31:28;;;;;;;12.35;11.95;;;;;;;-141.02;100.00;41536.53;5133282;27;20227;-68
2023/08/12 01:33:59;;;;;;;12.50;12.10;;;;;;;-141.02;100.00;41396.44;5133438;27;20185;-67
2023/08/12 01:36:28;;;;;;;11.80;11.50;;;;;;;-141.02;100.00;41500.06;5133613;27;20199;-65
2023/08/12 01:39:00;;;;;;;12.50;12.10;;;;;;;-141.02;100.00;41596.00;5133869;27;20280;-66
2023/08/12 01:41:27;;;;;;;12.30;11.90;;;;;;;-141.02;100.00;41665.09;5133551;27;20620;-67
2023/08/12 01:43:55;;;;;;;11.80;11.40;;;;;;;-141.02;100.00;41707.31;5133583;27;20195;-67
2023/08/12 01:46:22;;;;;;;11.98;11.57;;;;;;;-141.02;100.00;41776.41;5133841;27;20633;-63
2023/08/12 01:48:50;;;;;;;12.07;11.68;;;;;;;-141.02;100.00;41764.88;5133414;27;20200;-69
2023/08/12 01:51:17;;;;;;;11.90;11.50;;;;;;;-141.02;100.00;41657.41;5133095;27;20717;-70
2023/08/12 01:53:43;;;;;;;12.25;11.85;;;;;;;-141.02;100.00;41517.31;5133357;27;20271;-68
2023/08/12 01:56:12;;;;;;;12.52;12.13;;;;;;;-141.02;100.00;41480.88;5133298;27;20250;-68
2023/08/12 01:58:39;;;;;;;12.32;11.93;;;;;;;-141.02;100.00;41461.69;5132989;27;20274;-66
2023/08/12 02:01:06;;;;;;;12.10;11.70;;;;;;;-141.02;100.00;41534.59;5133275;27;20283;-67
2023/08/12 02:03:33;;;;;;;12.10;11.70;;;;;;;-141.02;100.00;41697.72;5133313;27;20614;-68
2023/08/12 02:06:00;;;;;;;12.70;12.30;;;;;;;-141.02;100.00;41761.06;5132883;27;20253;-68
2023/08/12 02:08:26;;;;;;;11.90;11.50;;;;;;;-141.02;100.00;41749.53;5132918;27;20583;-65
2023/08/12 02:10:53;;;;;;;12.10;11.70;;;;;;;-141.02;100.00;41849.34;5133278;27;20282;-69
2023/08/12 02:13:22;;;;;;;12.10;11.70;;;;;;;-141.02;100.00;41734.19;5139762;27;20663;-69
2023/08/12 02:15:49;;;;;;;12.23;11.82;;;;;;;-141.02;100.00;41713.06;5139760;27;20293;-68
2023/08/12 02:18:16;;;;;;;11.90;11.60;;;;;;;-141.02;100.00;41741.84;5139643;27;20196;-61
2023/08/12 02:20:43;;;;;;;11.93;11.57;;;;;;;-141.02;100.00;41887.72;5139780;27;20196;-68
2023/08/12 02:23:09;;;;;;;11.00;10.70;;;;;;;-141.02;100.00;41832.06;5139660;27;20275;-66
2023/08/12 02:25:36;;;;;;;11.80;11.50;;;;;;;-141.02;100.00;41753.38;5139993;27;20275;-68
2023/08/12 02:28:04;;;;;;;11.93;11.60;;;;;;;-141.02;100.00;41791.75;5139628;27;20286;-69
2023/08/12 02:30:33;;;;;;;11.57;11.27;;;;;;;-141.02;100.00;42045.09;5139745;27;20266;-68
2023/08/12 02:33:00;;;;;;;12.02;11.63;;;;;;;-141.02;100.00;42102.66;5139922;27;20192;-69
2023/08/12 02:35:27;;;;;;;12.20;11.80;;;;;;;-141.02;100.00;42129.53;5139763;27;20601;-69
2023/08/12 02:37:54;;;;;;;12.13;11.73;;;;;;;-141.02;100.00;42164.09;5139541;27;20658;-69
2023/08/12 02:40:21;;;;;;;12.15;11.75;;;;;;;-141.02;100.00;42139.13;5139676;27;20192;-68
2023/08/12 02:42:48;;;;;;;12.38;11.98;;;;;;;-141.02;100.00;42152.56;5139518;27;20618;-68
2023/08/12 02:45:15;;;;;;;11.30;11.00;;;;;;;-141.02;100.00;42269.66;5139509;27;20192;-69
2023/08/12 02:47:43;;;;;;;11.40;11.10;;;;;;;-141.02;100.00;42294.63;5139420;27;20262;-68
2023/08/12 02:50:10;;;;;;;11.45;11.15;;;;;;;-141.02;100.00;42290.78;5139663;27;20315;-70
2023/08/12 02:52:37;;;;;;;11.60;11.30;;;;;;;-141.02;100.00;42167.94;5139618;27;20220;-67
2023/08/12 02:55:04;;;;;;;11.30;11.00;;;;;;;-141.02;100.00;42025.91;5139690;27;20284;-67
2023/08/12 02:57:32;;;;;;;11.90;11.50;;;;;;;-141.02;100.00;41987.50;5139380;27;20196;-63
2023/08/12 02:59:59;;;;;;;12.10;11.70;;;;;;;-141.02;100.00;41931.84;5139323;27;20227;-69
2023/08/12 03:02:26;;;;;;;12.15;11.75;;;;;;;-141.02;100.00;41910.75;5139623;27;20299;-68
2023/08/12 03:04:55;;;;;;;12.20;11.80;;;;;;;-141.02;100.00;42062.38;5139537;27;20611;-66
2023/08/12 03:07:21;;;;;;;12.23;11.82;;;;;;;-141.02;100.00;42187.13;5139602;27;20196;-67
2023/08/12 03:09:48;;;;;;;11.40;11.10;;;;;;;-141.02;100.00;42304.22;5139465;27;20192;-68
2023/08/12 03:12:15;;;;;;;12.20;11.80;;;;;;;-141.02;100.00;42530.72;5139177;27;20611;-67
2023/08/12 03:14:42;;;;;;;12.10;11.70;;;;;;;-141.02;100.00;42797.53;5139523;27;20192;-68
2023/08/12 03:17:09;;;;;;;12.10;11.70;;;;;;;-141.02;100.00;43020.25;5139484;27;20275;-68
2023/08/12 03:19:36;;;;;;;12.55;12.15;;;;;;;-141.02;100.00;43521.34;5139196;27;20282;-67
2023/08/12 03:22:04;;;;;;;11.40;11.10;;;;;;;-141.02;100.00;44191.56;5139375;27;20250;-66
2023/08/12 03:24:31;;;;;;;10.90;10.60;;;;;;;-141.02;100.00;45117.38;5135493;27;20260;-66
2023/08/12 03:26:58;;;;;;;11.30;11.00;;;;;;;-141.02;100.00;46139.53;5136257;27;20199;-65
2023/08/12 03:29:25;;;;;;;11.15;10.85;;;;;;;-141.02;100.00;47144.69;5135819;27;20559;-66
2023/08/12 03:31:52;;;;;;;10.63;10.32;;;;;;;-141.02;100.00;48280.91;5136043;27;20238;-65
2023/08/12 03:34:19;;;;;;;10.25;9.95;;;;;;;-141.02;100.00;49442.50;5135909;27;20275;-66
2023/08/12 03:36:48;;;;;;;10.02;9.73;;;;;;;-141.02;100.00;50079.25;5135728;27;20232;-66
2023/08/12 03:39:16;;;;;;;9.85;9.55;;;;;;;-141.02;100.00;52452.22;5136018;27;20279;-66
2023/08/12 03:41:44;;;;;;;9.88;9.57;;;;;;;-141.02;100.00;53800.16;5135932;27;20231;-66
2023/08/12 03:44:10;;;;;;;9.52;9.23;;;;;;;-141.02;100.00;55279.63;5135620;27;20288;-66
2023/08/12 03:46:37;;;;;;;9.20;9.00;;;;;;;-141.02;100.00;55772.94;5135696;27;20192;-61
2023/08/12 03:49:05;;;;;;;8.80;8.60;;;;;;;-141.02;100.00;57006.53;5135707;27;20675;-67
2023/08/12 03:51:32;;;;;;;8.80;8.60;;;;;;;-141.02;100.00;58240.56;5135590;27;20307;-67
2023/08/12 03:53:59;;;;;;;9.40;9.10;;;;;;;-141.02;100.00;63181.16;5135461;27;20284;-67
2023/08/12 03:56:28;;;;;;;8.55;8.35;;;;;;;-141.02;100.00;65159.41;5135553;27;20208;-65
2023/08/12 03:58:54;;;;;;;9.00;8.80;;;;;;;-141.02;100.00;62192.44;5135466;27;20289;-67
2023/08/12 04:01:22;;;;;;;9.90;9.60;;;;;;;-141.02;100.00;62439.59;5135239;27;20279;-67
2023/08/12 04:03:49;;;;;;;9.85;9.55;;;;;;;-141.02;100.00;62933.94;5135631;27;20205;-64
2023/08/12 04:06:16;;;;;;;10.00;9.70;;;;;;;-141.02;100.00;61698.22;5135521;27;20658;-67
2023/08/12 04:08:43;;;;;;;10.85;10.55;;;;;;;-141.02;100.00;59968.94;5135105;27;20719;-67
2023/08/12 04:11:10;;;;;;;11.40;11.10;;;;;;;-141.02;100.00;58487.41;5134892;27;20234;-67
2023/08/12 04:13:38;;;;;;;11.00;10.70;;;;;;;-141.02;100.00;56019.63;5135038;27;20232;-65
2023/08/12 04:16:05;;;;;;;13.20;12.80;;;;;;;-141.02;100.00;52664.00;5134909;27;20197;-68
2023/08/12 04:18:32;;;;;;;13.80;13.40;;;;;;;-141.02;100.00;51143.31;5134974;27;20727;-64
2023/08/12 04:20:59;;;;;;;14.38;13.90;;;;;;;-141.02;100.00;50664.16;5135067;27;20628;-66
2023/08/12 04:23:26;;;;;;;15.70;15.20;;;;;;;-141.02;100.00;49327.09;5134608;27;20232;-67
2023/08/12 04:25:54;;;;;;;15.35;14.85;;;;;;;-141.02;100.00;48900.13;5135147;27;20272;-67
2023/08/12 04:28:21;;;;;;;16.73;16.05;;;;;;;-141.02;100.00;47363.81;5134879;27;20195;-67
2023/08/12 04:30:50;;;;;;;16.65;15.95;;;;;;;-141.02;100.00;46643.03;5134901;27;20312;-66
2023/08/12 04:33:17;;;;;;;16.50;15.80;;;;;;;-141.02;100.00;46577.69;5134540;27;20597;-64
2023/08/12 04:35:44;;;;;;;16.60;15.90;;;;;;;-141.02;100.00;46199.09;5133693;27;20199;-64
2023/08/12 04:38:11;;;;;;;16.27;15.68;;;;;;;-141.02;100.00;46274.03;5135050;27;20227;-65
2023/08/12 04:40:40;;;;;;;16.23;15.63;;;;;;;-141.02;100.00;45997.31;5134752;27;20275;-66
2023/08/12 04:43:08;;;;;;;16.23;15.63;;;;;;;-141.02;100.00;45812.88;5134691;27;20199;-66
2023/08/12 04:45:36;;;;;;;16.80;16.10;;;;;;;-141.02;100.00;45434.34;5134658;27;20218;-62
2023/08/12 04:48:05;;;;;;;16.70;16.00;;;;;;;-141.02;100.00;45201.91;5134282;27;20641;-65
2023/08/12 04:50:34;;;;;;;17.08;16.38;;;;;;;-141.02;100.00;44948.31;5134400;27;20311;-67
2023/08/12 04:53:01;;;;;;;17.80;17.00;;;;;;;-141.02;100.00;44383.59;5134178;27;20734;-63
2023/08/12 04:55:28;;;;;;;18.08;17.27;;;;;;;-141.02;97.17;44379.78;5134448;27;20277;-64
2023/08/12 04:57:55;;;;;;;18.55;17.65;;;;;;;-141.02;96.86;44262.63;5134372;27;20224;-68
2023/08/12 05:00:23;;;;;;;17.50;16.70;;;;;;;-141.02;100.00;44452.75;5134054;27;20198;-64
2023/08/12 05:02:50;;;;;;;17.73;16.92;;;;;;;-141.02;97.20;44518.06;5133926;27;20231;-68
2023/08/12 05:05:18;;;;;;;18.08;17.27;;;;;;;-141.02;93.82;44437.38;5133983;27;20793;-68
2023/08/12 05:07:48;;;;;;;18.15;17.35;;;;;;;-141.02;92.34;44287.59;5133882;27;20239;-67
2023/08/12 05:10:15;;;;;;;18.65;17.75;;;;;;;-141.02;89.15;44003.34;5134368;27;20249;-63
2023/08/12 05:12:43;;;;;;;18.33;17.42;;;;;;;-141.02;89.21;43915.00;5133882;27;20285;-68
2023/08/12 05:15:11;;;;;;;18.73;17.83;;;;;;;-141.02;92.58;43473.34;5133801;27;20201;-60
2023/08/12 05:17:38;;;;;;;18.85;17.90;;;;;;;-141.02;96.49;43431.13;5134074;27;20299;-66
2023/08/12 05:20:06;;;;;;;18.17;17.38;;;;;;;-141.02;99.88;43542.47;5133634;27;20193;-67
2023/08/12 05:22:34;;;;;;;17.55;16.75;;;;;;;-141.02;100.00;43953.41;5133659;27;20228;-63
2023/08/12 05:25:01;;;;;;;17.10;16.38;;;;;;;-141.02;99.88;43934.22;5133655;27;20315;-66
2023/08/12 05:27:28;;;;;;;16.35;15.65;;;;;;;-141.02;98.03;43895.81;5133878;27;20692;-67
2023/08/12 05:29:55;;;;;;;17.55;16.75;;;;;;;-141.02;96.73;43584.72;5133805;27;20275;-68
2023/08/12 05:32:22;;;;;;;17.00;16.20;;;;;;;-141.02;100.00;43596.25;5133601;27;20401;-64
2023/08/12 05:34:51;;;;;;;16.83;16.13;;;;;;;-141.02;100.00;43832.44;5133649;27;20227;-66
2023/08/12 05:37:18;;;;;;;16.48;15.77;;;;;;;-141.02;100.00;43719.13;5134093;27;20211;-67
2023/08/12 05:39:46;;;;;;;15.40;14.80;;;;;;;-141.02;100.00;44082.09;5133729;27;20275;-67
2023/08/12 05:42:13;;;;;;;16.48;15.77;;;;;;;-141.02;100.00;44168.50;5133266;27;20192;-68
2023/08/12 05:44:42;;;;;;;16.60;15.90;;;;;;;-141.02;100.00;44441.22;5133567;27;20275;-67
2023/08/12 05:47:09;;;;;;;16.55;15.85;;;;;;;-141.02;100.00;44057.13;5133098;27;20699;-67
2023/08/12 05:49:36;;;;;;;16.80;16.10;;;;;;;-141.02;100.00;44180.03;5133182;27;20192;-65
2023/08/12 05:52:03;;;;;;;17.15;16.35;;;;;;;-141.02;100.00;44155.06;5133410;27;20219;-68
2023/08/12 05:54:30;;;;;;;16.85;16.15;;;;;;;-141.02;100.00;44345.19;5133506;27;20235;-67
2023/08/12 05:56:59;;;;;;;16.60;15.90;;;;;;;-141.02;100.00;44464.28;5133143;27;20199;-67
2023/08/12 05:59:26;;;;;;;16.58;15.88;;;;;;;-141.02;100.00;44485.41;5133085;27;20202;-68
2023/08/12 06:01:53;;;;;;;16.48;15.77;;;;;;;-141.02;100.00;44350.97;5133325;27;20279;-67
2023/08/12 06:04:20;;;;;;;16.38;15.68;;;;;;;-141.02;100.00;44598.72;5133362;27;20272;-67
2023/08/12 06:06:47;;;;;;;17.08;16.27;;;;;;;-141.02;100.00;44489.25;5133000;27;20194;-60
2023/08/12 06:09:14;;;;;;;17.30;16.50;;;;;;;-141.02;100.00;44483.47;5133306;27;20275;-68
2023/08/12 06:11:41;;;;;;;16.45;15.75;;;;;;;-141.02;100.00;44437.38;5133131;28;20311;-68
2023/08/12 06:14:09;;;;;;;16.95;16.20;;;;;;;-141.02;100.00;44652.50;5133650;28;20228;-68
2023/08/12 06:16:36;;;;;;;17.05;16.25;;;;;;;-141.02;99.97;44372.09;5132920;28;20283;-68
2023/08/12 06:19:03;;;;;;;17.60;16.80;;;;;;;-141.02;100.00;44429.72;5133133;28;20224;-68
2023/08/12 06:21:30;;;;;;;17.70;16.90;;;;;;;-141.02;100.00;44295.25;5132866;27;20196;-66
2023/08/12 06:23:57;;;;;;;17.15;16.35;;;;;;;-141.02;100.00;44314.47;5132783;28;20312;-63
2023/08/12 06:26:24;;;;;;;17.60;16.80;;;;;;;-141.02;100.00;44337.50;5132830;28;20188;-68
2023/08/12 06:28:51;;;;;;;17.70;16.90;;;;;;;-141.02;100.00;44956.00;5132836;28;20375;-66
2023/08/12 06:31:19;;;;;;;17.83;17.02;;;;;;;-141.02;97.61;44752.38;5132939;28;20306;-65
2023/08/12 06:33:46;;;;;;;17.73;16.92;;;;;;;-141.02;98.14;44706.28;5132747;28;20283;-67
2023/08/12 06:36:13;;;;;;;18.48;17.58;;;;;;;-141.02;97.17;44343.28;5133172;28;20197;-68
2023/08/12 06:38:40;;;;;;;17.60;16.80;;;;;;;-141.02;97.44;44612.19;5133169;28;20220;-68
2023/08/12 06:41:07;;;;;;;18.27;17.38;;;;;;;-141.02;94.64;44612.19;5133011;28;20196;-65
2023/08/12 06:43:34;;;;;;;18.30;17.40;;;;;;;-141.02;94.46;44717.81;5132905;28;20199;-65
2023/08/12 06:46:01;;;;;;;18.45;17.55;;;;;;;-141.02;94.40;44226.13;5132962;28;20196;-67
2023/08/12 06:48:30;;;;;;;18.45;17.55;;;;;;;-141.02;94.00;44448.91;5132833;28;20197;-67
2023/08/12 06:50:57;;;;;;;18.38;17.48;;;;;;;-141.02;94.03;44598.72;5133166;27;20193;-67
2023/08/12 06:53:27;;;;;;;18.85;17.95;;;;;;;-141.02;91.94;44629.47;5132523;28;20287;-68
2023/08/12 06:55:54;;;;;;;18.55;17.65;;;;;;;-141.02;91.62;44571.84;5133187;28;20276;-65
2023/08/12 06:58:21;;;;;;;18.70;17.80;;;;;;;-141.02;92.06;44667.88;5133964;27;20192;-67
2023/08/12 07:00:48;;;;;;;18.77;17.88;;;;;;;-141.02;90.14;44571.84;5136715;27;20196;-58
2023/08/12 07:03:15;;;;;;;18.58;17.67;;;;;;;-141.02;91.30;45021.31;5136416;27;20662;-62
2023/08/12 07:05:43;;;;;;;18.45;17.60;;;;;;;-141.02;89.78;44808.09;5136472;27;20271;-68
2023/08/12 07:08:10;;;;;;;18.30;17.40;;;;;;;-141.02;90.84;44456.59;5136548;27;20192;-62
2023/08/12 07:10:39;;;;;;;18.50;17.60;;;;;;;-141.02;88.39;44760.06;5136551;27;20291;-64
2023/08/12 07:13:06;;;;;;;18.25;17.35;;;;;;;-141.02;88.60;45157.72;5136408;27;20307;-66
2023/08/12 07:15:33;;;;;;;18.77;17.88;;;;;;;-141.02;86.87;44779.28;5136148;27;20287;-68
2023/08/12 07:18:00;;;;;;;18.67;17.77;;;;;;;-141.02;87.36;45347.91;5135986;27;20201;-66
2023/08/12 07:20:27;;;;;;;19.52;18.52;;;;;;;-141.02;81.58;44840.75;5135984;27;20279;-66
2023/08/12 07:22:56;;;;;;;19.27;18.27;;;;;;;-141.02;79.18;44952.16;5136075;27;20272;-69
2023/08/12 07:25:23;;;;;;;19.40;18.40;;;;;;;-141.02;77.59;44848.44;5136176;27;20271;-60
2023/08/12 07:27:50;;;;;;;19.13;18.13;;;;;;;-141.02;80.63;44950.25;5136275;27;20309;-67
2023/08/12 07:30:17;;;;;;;18.98;17.98;;;;;;;-141.02;79.32;44909.91;5135798;27;20684;-68
2023/08/12 07:32:44;;;;;;;18.60;17.70;;;;;;;-141.02;79.18;45497.75;5135623;27;20772;-67
2023/08/12 07:35:11;;;;;;;19.15;18.15;;;;;;;-141.02;76.43;44963.69;5135914;27;20284;-68
2023/08/12 07:37:38;;;;;;;19.15;18.15;;;;;;;-141.02;75.66;45221.09;5135969;27;20188;-67
2023/08/12 07:40:08;;;;;;;19.15;18.15;;;;;;;-141.02;75.49;45178.84;5136002;27;20235;-67
2023/08/12 07:42:35;;;;;;;19.30;18.30;;;;;;;-141.02;74.06;44637.16;5135898;27;20204;-67
2023/08/12 07:45:02;;;;;;;18.90;17.90;;;;;;;-141.02;75.50;44621.78;5135829;27;20254;-61
2023/08/12 07:47:30;;;;;;;18.83;17.83;;;;;;;-141.02;74.02;44950.25;5135739;27;20196;-66
2023/08/12 07:49:56;;;;;;;19.13;18.13;;;;;;;-141.02;73.78;45100.09;5135502;27;20314;-68
2023/08/12 07:52:23;;;;;;;19.33;18.33;;;;;;;-141.02;73.02;45117.38;5135362;27;20318;-63
2023/08/12 07:54:50;;;;;;;18.67;17.67;;;;;;;-141.02;72.95;45960.81;5135405;27;20295;-67
2023/08/12 07:57:20;;;;;;;19.30;18.30;;;;;;;-141.02;71.25;45632.25;5135651;27;20196;-67
2023/08/12 07:59:47;;;;;;;19.42;18.42;;;;;;;-141.02;70.06;45839.75;5135269;27;20203;-67
2023/08/12 08:02:14;;;;;;;18.83;17.83;;;;;;;-141.02;69.78;45732.16;5135255;27;20284;-65
2023/08/12 08:04:41;;;;;;;18.60;17.70;;;;;;;-141.02;70.30;45864.75;5135411;27;20256;-67
2023/08/12 08:07:08;;;;;;;18.67;17.67;;;;;;;-141.02;68.62;46404.72;5135195;27;20200;-68
2023/08/12 08:09:36;;;;;;;19.10;18.10;;;;;;;-141.02;68.24;46058.81;5135363;27;20197;-68
2023/08/12 08:12:04;;;;;;;18.80;17.80;;;;;;;-141.02;68.73;45956.97;5135160;27;20231;-70
2023/08/12 08:14:32;;;;;;;19.10;18.10;;;;;;;-141.02;67.61;46562.31;5135268;27;20235;-67
2023/08/12 08:16:59;;;;;;;19.15;18.15;;;;;;;-141.02;66.30;46946.72;5134880;27;20292;-67
2023/08/12 08:19:26;;;;;;;19.55;18.45;;;;;;;-141.02;64.33;47331.16;5135175;27;20271;-68
2023/08/12 08:21:53;;;;;;;19.45;18.35;;;;;;;-141.02;63.23;47675.25;5135158;27;20280;-66
2023/08/12 08:24:20;;;;;;;18.90;17.90;;;;;;;-141.02;63.26;46562.31;5135508;27;20224;-67
2023/08/12 08:26:47;;;;;;;19.13;18.10;;;;;;;-141.02;62.68;46627.66;5134767;27;20614;-62
2023/08/12 08:29:14;;;;;;;18.95;17.95;;;;;;;-141.02;64.84;45966.59;5134655;27;20570;-68
2023/08/12 08:31:43;;;;;;;18.98;17.98;;;;;;;-141.02;64.33;45741.78;5134944;27;20226;-67
2023/08/12 08:34:10;;;;;;;19.33;18.27;;;;;;;-141.02;63.72;45943.53;5134931;27;20199;-58
2023/08/12 08:36:37;;;;;;;18.73;17.73;;;;;;;-141.02;64.06;46731.44;5135146;27;20188;-58
2023/08/12 08:39:05;;;;;;;19.15;18.15;;;;;;;-141.02;62.39;46900.56;5134826;27;20235;-67
2023/08/12 08:41:33;;;;;;;18.80;17.80;;;;;;;-141.02;62.30;46839.06;5134729;27;20200;-66
2023/08/12 08:44:04;;;;;;;19.08;18.08;;;;;;;-141.02;61.82;46393.19;5134585;27;20192;-62
2023/08/12 08:46:31;;;;;;;18.98;17.98;;;;;;;-141.02;61.98;46122.22;5134702;27;20188;-69
2023/08/12 08:49:01;;;;;;;18.85;17.85;;;;;;;-141.02;61.95;46658.41;5134831;27;20189;-65
2023/08/12 08:51:32;;;;;;;18.90;17.80;;;;;;;-141.02;60.88;46912.09;5134530;27;20185;-66
2023/08/12 08:53:59;;;;;;;18.80;17.70;;;;;;;-141.02;60.54;46496.97;5134197;27;20181;-69
2023/08/12 08:56:26;;;;;;;18.85;17.77;;;;;;;-141.02;60.63;45812.88;5134408;27;20238;-61
2023/08/12 08:58:54;;;;;;;18.45;17.35;;;;;;;-141.02;60.64;45851.28;5134072;27;20239;-66
2023/08/12 09:01:22;;;;;;;18.85;17.75;;;;;;;-141.02;60.87;45970.44;5134431;27;20271;-66
2023/08/12 09:03:52;;;;;;;20.00;18.80;;;;;;;-141.02;60.32;47561.84;5134222;27;20192;-65
2023/08/12 09:06:22;;;;;;;18.75;17.65;;;;;;;-141.02;59.03;48627.03;5133942;27;20562;-64
2023/08/12 09:08:52;;;;;;;18.85;17.75;;;;;;;-141.02;55.88;47888.66;5134245;27;20184;-67
2023/08/12 09:11:20;;;;;;;19.05;17.95;;;;;;;-141.02;56.72;47859.81;5134183;27;20275;-66
2023/08/12 09:13:48;;;;;;;19.25;18.15;;;;;;;-141.02;55.14;47665.66;5133791;27;20228;-66
2023/08/12 09:16:15;;;;;;;19.02;18.02;;;;;;;-141.02;56.49;46112.63;5134047;27;20278;-69
2023/08/12 09:18:44;;;;;;;19.08;17.98;;;;;;;-141.02;56.82;45774.44;5133903;27;20203;-68
2023/08/12 09:21:11;;;;;;;19.08;17.98;;;;;;;-141.02;56.81;45687.97;5132987;27;20197;-67
2023/08/12 09:23:41;;;;;;;19.05;17.95;;;;;;;-141.02;55.77;45820.56;5133470;27;20327;-67
2023/08/12 09:26:19;;;;;;;19.27;18.17;;;;;;;-141.02;55.78;46646.88;5133462;27;20726;-67
2023/08/12 09:28:46;;;;;;;18.90;17.90;;;;;;;-141.02;54.39;46742.97;5133870;27;20710;-70
2023/08/12 09:31:24;;;;;;;19.20;18.20;;;;;;;-141.02;54.09;46364.38;5133752;27;20196;-69
2023/08/12 09:33:51;;;;;;;19.35;18.35;;;;;;;-141.02;54.85;46769.88;5133762;27;20592;-66
2023/08/12 09:36:19;;;;;;;19.25;18.25;;;;;;;-141.02;53.12;46097.25;5133647;27;20271;-64
2023/08/12 09:38:47;;;;;;;19.40;18.40;;;;;;;-141.02;54.33;46673.78;5133643;27;20189;-67
2023/08/12 09:41:14;;;;;;;19.38;18.38;;;;;;;-141.02;54.62;44500.78;5133508;27;20287;-68
2023/08/12 09:43:42;;;;;;;17.90;16.90;;;;;;;-141.02;54.64;45778.28;5133643;27;20383;-67
2023/08/12 09:46:13;;;;;;;18.23;17.23;;;;;;;-141.02;53.75;46195.25;5133296;27;20682;-68
2023/08/12 09:48:40;;;;;;;18.98;17.88;;;;;;;-141.02;52.38;46427.78;5133232;27;20216;-68
2023/08/12 09:51:08;;;;;;;18.67;17.67;;;;;;;-141.02;52.67;46493.13;5133517;27;20560;-68
2023/08/12 09:53:35;;;;;;;18.65;17.65;;;;;;;-141.02;53.00;46147.22;5133060;27;20231;-66
2023/08/12 09:56:07;;;;;;;18.23;17.25;;;;;;;-141.02;53.13;46183.72;5133158;27;20652;-66
2023/08/12 09:58:36;;;;;;;18.80;17.80;;;;;;;-141.02;53.63;45616.88;5133303;27;20204;-66
2023/08/12 10:01:04;;;;;;;18.55;17.55;;;;;;;-141.02;53.11;45778.28;5133247;27;20204;-68
2023/08/12 10:03:33;;;;;;;18.85;17.85;;;;;;;-141.02;53.19;46114.53;5133003;27;20192;-65
2023/08/12 10:06:03;;;;;;;18.45;17.45;;;;;;;-141.02;51.69;45559.25;5133080;27;20283;-67
2023/08/12 10:08:30;;;;;;;18.50;17.50;;;;;;;-141.02;51.86;45958.91;5133274;27;20196;-69
2023/08/12 10:10:57;;;;;;;18.67;17.67;;;;;;;-141.02;52.08;45190.38;5132951;27;20192;-69
2023/08/12 10:13:26;;;;;;;18.38;17.38;;;;;;;-141.02;52.04;44998.28;5133503;27;20302;-68
2023/08/12 10:15:53;;;;;;;18.40;17.40;;;;;;;-141.02;50.90;44302.94;5133117;28;20224;-63
2023/08/12 10:18:23;;;;;;;18.58;17.58;;;;;;;-141.02;51.78;43918.84;5133712;28;20256;-69
2023/08/12 10:20:51;;;;;;;18.77;17.77;;;;;;;-141.02;53.18;43880.44;5133107;28;20271;-66
2023/08/12 10:23:18;;;;;;;18.48;17.48;;;;;;;-141.02;53.77;43577.03;5132917;27;20314;-61
2023/08/12 10:25:46;;;;;;;18.20;17.20;;;;;;;-141.02;54.02;43744.09;5132892;28;20275;-67
2023/08/12 10:28:13;;;;;;;18.63;17.63;;;;;;;-141.02;53.52;43815.16;5133062;27;20275;-67
2023/08/12 10:30:42;;;;;;;18.35;17.35;;;;;;;-141.02;54.37;43415.75;5133084;27;20209;-63
2023/08/12 10:33:11;;;;;;;18.30;17.30;;;;;;;-141.02;55.72;43194.94;5135334;27;20236;-67
2023/08/12 10:35:45;;;;;;;18.17;17.17;;;;;;;-141.02;56.14;43454.16;5137259;27;20192;-68
2023/08/12 10:38:14;;;;;;;18.38;17.38;;;;;;;-141.02;55.14;43465.66;5137324;27;20626;-67
2023/08/12 10:40:41;;;;;;;18.27;17.27;;;;;;;-141.02;55.58;43454.16;5137082;27;20608;-68
2023/08/12 10:43:08;;;;;;;18.25;17.25;;;;;;;-141.02;55.54;43350.47;5136995;27;20282;-69
2023/08/12 10:45:49;;;;;;;18.65;17.65;;;;;;;-141.02;55.91;43312.06;5136995;27;20249;-66
2023/08/12 10:48:22;;;;;;;18.63;17.63;;;;;;;-141.02;55.16;43427.28;5137055;27;20269;-69
2023/08/12 10:50:50;;;;;;;18.27;17.27;;;;;;;-141.02;55.15;43646.16;5136900;27;20223;-68
2023/08/12 10:53:29;;;;;;;18.58;17.58;;;;;;;-141.02;54.20;43742.19;5136460;27;20322;-64
2023/08/12 10:55:58;;;;;;;18.73;17.73;;;;;;;-141.02;54.15;43984.16;5136890;27;20194;-66
2023/08/12 10:58:29;;;;;;;18.73;17.73;;;;;;;-141.02;54.83;43369.66;5136391;27;20196;-68
2023/08/12 11:00:59;;;;;;;18.35;17.35;;;;;;;-141.02;54.38;43482.94;5136598;27;20193;-67